Nearby METAR Reports

 

YSRI - Richmond (aus-Af, Australia
Distance from station: SW 65km
Updated: 25/06/2021 14:00
Clear
Clear
 Wind from SW
Wind: SW 17 km/h
Temperature: 19°C
Dew Point: 5°C
Humidity: 40%
Barometer: 1013 hPa
Clouds: Clear
Visibility: 10 km
2021/06/25 04:00 YSRI 250400Z AUTO 23009KT 9999 // NCD 19/05 Q1013 RF00.0/000.0
YWLM - Williamtown Arp, Australia
Distance from station: NE 69km
Updated: 25/06/2021 14:00
Partly cloudy
Partly cloudy
 Wind from W
Wind: W 24 km/h
Temperature: 19°C
Dew Point: 10°C
Humidity: 56%
Barometer: 1014 hPa
Clouds: Partly cloudy
Visibility: 10 km
Cloud details: Few Clouds 1067 m
Partly cloudy 9144 m
2021/06/25 04:00 YWLM 250400Z 27013KT 9999 FEW035 SCT300 19/10 Q1014
 
YSSY - Sydney Intl Airp, Australia
Distance from station: SSW 77km
Updated: 25/06/2021 14:00
Clear
Clear
 Wind from W
Wind: W 31 km/h
Temperature: 19°C
Dew Point: 4°C
Humidity: 37%
Barometer: 1013 hPa
Summary: Clear
Visibility: greater than 10 km
2021/06/25 04:00 YSSY 250400Z 27017KT CAVOK 19/04 Q1013